createdAt,value
2022-11-19T00:01:40.104Z,19.50
2022-11-19T00:03:59.714Z,17.23
2022-11-19T00:06:21.932Z,12.30
2022-11-19T00:08:42.310Z,14.45
2022-11-19T00:11:10.075Z,13.60
2022-11-19T00:13:29.986Z,14.20
2022-11-19T00:15:50.202Z,13.85
2022-11-19T00:18:09.947Z,14.52
2022-11-19T00:20:30.094Z,13.82
2022-11-19T00:22:54.755Z,17.35
2022-11-19T00:25:14.736Z,13.13
2022-11-19T00:27:34.402Z,14.55
2022-11-19T00:29:54.051Z,16.40
2022-11-19T00:32:13.884Z,14.32
2022-11-19T00:34:33.677Z,12.82
2022-11-19T00:36:53.535Z,12.93
2022-11-19T00:39:13.413Z,13.00
2022-11-19T00:41:33.527Z,14.68
2022-11-19T00:43:54.502Z,14.20
2022-11-19T00:46:24.820Z,13.10
2022-11-19T00:48:46.115Z,12.48
2022-11-19T00:51:07.349Z,13.90
2022-11-19T00:53:27.243Z,16.17
2022-11-19T00:55:47.301Z,14.90
2022-11-19T00:58:07.383Z,14.05
2022-11-19T01:00:26.938Z,12.88
2022-11-19T01:02:46.791Z,17.08
2022-11-19T01:05:07.240Z,14.40
2022-11-19T01:07:26.830Z,12.88
2022-11-19T01:09:47.275Z,13.98
2022-11-19T01:12:07.133Z,14.75
2022-11-19T01:14:26.906Z,14.80
2022-11-19T01:16:46.418Z,13.80
2022-11-19T01:19:08.140Z,11.93
2022-11-19T01:21:30.709Z,14.55
2022-11-19T01:23:50.772Z,18.92
2022-11-19T01:26:12.842Z,13.55
2022-11-19T01:28:33.409Z,15.23
2022-11-19T01:30:53.231Z,14.18
2022-11-19T01:33:13.301Z,11.98
2022-11-19T01:35:34.148Z,11.40
2022-11-19T01:37:54.157Z,11.20
2022-11-19T01:40:14.937Z,11.38
2022-11-19T01:42:49.616Z,10.45
2022-11-19T01:45:31.432Z,9.70
2022-11-19T01:47:53.868Z,11.35
2022-11-19T01:50:14.057Z,11.32
2022-11-19T01:52:33.981Z,11.48
2022-11-19T01:54:54.918Z,11.52
2022-11-19T01:57:17.267Z,10.63
2022-11-19T01:59:38.764Z,12.55
2022-11-19T02:01:59.193Z,11.82
2022-11-19T02:04:20.101Z,12.98
2022-11-19T02:06:42.102Z,11.60
2022-11-19T02:09:01.963Z,12.82
2022-11-19T02:11:37.216Z,13.32
2022-11-19T02:14:16.800Z,12.45
2022-11-19T02:17:03.519Z,11.85
2022-11-19T02:19:35.349Z,9.20
2022-11-19T02:22:04.036Z,9.60
2022-11-19T02:24:55.943Z,9.05
2022-11-19T02:27:46.661Z,8.18
2022-11-19T02:30:18.106Z,9.77
2022-11-19T02:33:10.087Z,9.60
2022-11-19T02:35:54.705Z,9.70
2022-11-19T02:38:20.445Z,9.73
2022-11-19T02:40:47.595Z,8.43
2022-11-19T02:43:19.322Z,8.27
2022-11-19T02:45:44.503Z,9.63
2022-11-19T02:48:24.044Z,8.15
2022-11-19T02:50:54.172Z,8.55
2022-11-19T02:53:13.869Z,8.27
2022-11-19T02:55:35.874Z,9.07
2022-11-19T02:58:30.711Z,8.98
2022-11-19T03:01:09.421Z,8.63
2022-11-19T03:03:49.512Z,7.78
2022-11-19T03:06:14.602Z,7.32
2022-11-19T03:08:35.017Z,7.65
2022-11-19T03:11:14.382Z,6.55
2022-11-19T03:14:05.068Z,6.18
2022-11-19T03:16:41.776Z,6.65
2022-11-19T03:19:09.937Z,6.82
2022-11-19T03:21:47.095Z,8.15
2022-11-19T03:24:15.580Z,8.70
2022-11-19T03:26:47.545Z,9.32
2022-11-19T03:29:10.804Z,8.80
2022-11-19T03:31:33.965Z,10.43
2022-11-19T03:33:58.753Z,10.25
2022-11-19T03:36:44.960Z,10.20
2022-11-19T03:39:18.055Z,11.27
2022-11-19T03:41:41.130Z,11.13
2022-11-19T03:44:08.253Z,12.98
2022-11-19T03:46:30.577Z,11.60
2022-11-19T03:48:54.403Z,12.45
2022-11-19T03:51:23.631Z,11.60
2022-11-19T03:53:43.739Z,12.23
2022-11-19T03:56:08.220Z,12.20
2022-11-19T03:58:29.064Z,12.48
2022-11-19T04:00:49.016Z,11.30
2022-11-19T04:03:08.796Z,13.13
2022-11-19T04:05:28.731Z,12.80
2022-11-19T04:07:48.863Z,12.68
2022-11-19T04:10:08.963Z,12.32
2022-11-19T04:12:28.753Z,11.73
2022-11-19T04:14:49.540Z,11.15
2022-11-19T04:17:09.535Z,10.43
2022-11-19T04:19:29.211Z,9.90
2022-11-19T04:21:49.816Z,10.90
2022-11-19T04:24:09.959Z,12.43
2022-11-19T04:26:29.610Z,11.55
2022-11-19T04:28:49.162Z,11.27
2022-11-19T04:31:11.315Z,11.07
2022-11-19T04:33:35.102Z,11.05
2022-11-19T04:35:54.784Z,11.93
2022-11-19T04:38:14.977Z,10.68
2022-11-19T04:40:34.601Z,10.75
2022-11-19T04:42:54.026Z,10.85
2022-11-19T04:45:13.623Z,13.27
2022-11-19T04:47:33.576Z,14.35
2022-11-19T04:49:54.672Z,13.02
2022-11-19T04:52:14.394Z,10.10
2022-11-19T04:54:33.876Z,9.45
2022-11-19T04:56:53.364Z,8.40
2022-11-19T04:59:13.083Z,10.05
2022-11-19T05:01:33.372Z,8.82
2022-11-19T05:03:53.305Z,8.98
2022-11-19T05:06:12.996Z,8.95
2022-11-19T05:08:32.562Z,10.52
2022-11-19T05:10:52.632Z,8.80
2022-11-19T05:13:12.777Z,10.55
2022-11-19T05:15:32.738Z,9.35
2022-11-19T05:17:52.932Z,10.52
2022-11-19T05:20:12.916Z,9.93
2022-11-19T05:22:32.982Z,17.10
2022-11-19T05:24:52.679Z,9.88
2022-11-19T05:27:12.420Z,9.77
2022-11-19T05:29:32.141Z,9.85
2022-11-19T05:31:52.208Z,9.70
2022-11-19T05:34:11.752Z,9.23
2022-11-19T05:36:31.323Z,10.05
2022-11-19T05:38:51.169Z,12.55
2022-11-19T05:41:11.411Z,12.70
2022-11-19T05:43:30.824Z,13.88
2022-11-19T05:45:50.429Z,10.52
2022-11-19T05:48:10.304Z,11.20
2022-11-19T05:50:31.023Z,11.70
2022-11-19T05:52:50.843Z,11.45
2022-11-19T05:55:10.681Z,11.52
2022-11-19T05:57:30.492Z,12.00
2022-11-19T05:59:50.151Z,12.55
2022-11-19T06:02:09.921Z,13.35
2022-11-19T06:04:29.934Z,15.70
2022-11-19T06:06:49.864Z,13.48
2022-11-19T06:09:09.689Z,11.43
2022-11-19T06:11:47.292Z,10.52
2022-11-19T06:14:07.471Z,9.57
2022-11-19T06:16:27.737Z,11.55
2022-11-19T06:18:47.778Z,10.73
2022-11-19T06:21:12.036Z,10.50
2022-11-19T06:23:32.166Z,13.10
2022-11-19T06:25:53.950Z,13.27
2022-11-19T06:28:13.712Z,12.27
2022-11-19T06:30:33.534Z,10.13
2022-11-19T06:32:53.338Z,12.73
2022-11-19T06:35:14.404Z,13.45
2022-11-19T06:37:34.361Z,16.08
2022-11-19T06:39:54.846Z,10.90
2022-11-19T06:42:33.878Z,9.18
2022-11-19T06:44:54.005Z,10.68
2022-11-19T06:47:13.713Z,9.45
2022-11-19T06:49:34.105Z,11.73
2022-11-19T06:51:53.941Z,10.35
2022-11-19T06:54:13.553Z,9.52
2022-11-19T06:56:33.518Z,10.43
2022-11-19T06:58:57.271Z,10.07
2022-11-19T07:01:17.160Z,10.35
2022-11-19T07:03:37.354Z,9.38
2022-11-19T07:06:00.893Z,10.40
2022-11-19T07:08:21.020Z,9.27
2022-11-19T07:10:41.040Z,10.88
2022-11-19T07:13:01.237Z,10.18
2022-11-19T07:15:20.998Z,9.20
2022-11-19T07:17:42.007Z,9.75
2022-11-19T07:20:02.081Z,9.13
2022-11-19T07:22:22.064Z,8.95
2022-11-19T07:24:41.933Z,9.18
2022-11-19T07:27:02.021Z,8.55
2022-11-19T07:29:22.518Z,9.23
2022-11-19T07:31:43.130Z,10.35
2022-11-19T07:34:06.379Z,8.93
2022-11-19T07:38:46.443Z,8.40
2022-11-19T07:41:26.836Z,9.90
2022-11-19T07:43:46.391Z,8.00
2022-11-19T07:46:06.550Z,11.95
2022-11-19T07:48:26.317Z,8.02
2022-11-19T07:50:55.241Z,9.35
2022-11-19T07:53:16.345Z,8.23
2022-11-19T07:55:36.753Z,7.18
2022-11-19T07:57:56.673Z,7.97
2022-11-19T08:00:17.182Z,6.68
2022-11-19T08:02:36.737Z,9.50
2022-11-19T08:04:56.861Z,8.90
2022-11-19T08:07:16.875Z,8.25
2022-11-19T08:09:36.506Z,11.07
2022-11-19T08:11:55.869Z,9.38
2022-11-19T08:14:15.557Z,8.20
2022-11-19T08:16:53.736Z,10.05
2022-11-19T08:19:16.284Z,10.43
2022-11-19T08:23:58.726Z,15.23
2022-11-19T08:26:18.339Z,15.82
2022-11-19T08:28:38.046Z,12.02
2022-11-19T08:31:08.510Z,10.57
2022-11-19T08:33:28.381Z,9.48
2022-11-19T08:35:48.240Z,10.55
2022-11-19T08:38:08.695Z,10.15
2022-11-19T08:40:28.670Z,8.65
2022-11-19T08:43:00.970Z,11.55
2022-11-19T08:45:21.810Z,10.52
2022-11-19T08:47:41.805Z,9.40
2022-11-19T08:50:01.984Z,8.18
2022-11-19T08:52:21.901Z,6.85
2022-11-19T08:54:41.606Z,6.32
2022-11-19T08:57:01.224Z,8.02
2022-11-19T08:59:21.232Z,6.25
2022-11-19T09:01:41.525Z,4.95
2022-11-19T09:04:01.176Z,5.75
2022-11-19T09:06:20.803Z,4.70
2022-11-19T09:08:40.619Z,5.13
2022-11-19T09:11:09.921Z,6.95
2022-11-19T09:13:29.820Z,4.70
2022-11-19T09:15:50.609Z,5.30
2022-11-19T09:18:10.778Z,4.53
2022-11-19T09:20:30.522Z,4.10
2022-11-19T09:22:50.587Z,5.18
2022-11-19T09:25:10.655Z,5.05
2022-11-19T09:27:30.366Z,5.60
2022-11-19T09:29:50.195Z,6.55
2022-11-19T09:32:10.151Z,4.88
2022-11-19T09:34:30.263Z,4.80
2022-11-19T09:36:51.217Z,5.13
2022-11-19T09:39:11.150Z,6.75
2022-11-19T09:42:00.913Z,4.55
2022-11-19T09:44:32.665Z,4.38
2022-11-19T09:47:17.367Z,3.35
2022-11-19T09:49:45.148Z,4.63
2022-11-19T09:52:10.142Z,4.07
2022-11-19T09:54:29.971Z,3.25
2022-11-19T09:56:53.612Z,4.28
2022-11-19T09:59:27.426Z,3.88
2022-11-19T10:01:47.292Z,4.93
2022-11-19T10:04:09.647Z,4.53
2022-11-19T10:06:44.696Z,5.28
2022-11-19T10:09:35.201Z,5.45
2022-11-19T10:12:25.247Z,3.90
2022-11-19T10:14:51.674Z,5.20
2022-11-19T10:17:15.698Z,5.55
2022-11-19T10:20:05.253Z,4.00
2022-11-19T10:22:33.223Z,3.75
2022-11-19T10:25:03.082Z,3.47
2022-11-19T10:27:31.400Z,5.65
2022-11-19T10:29:56.064Z,3.50
2022-11-19T10:32:38.232Z,4.25
2022-11-19T10:35:06.651Z,4.83
2022-11-19T10:37:34.352Z,5.07
2022-11-19T10:40:18.356Z,6.40
2022-11-19T10:42:41.562Z,6.07
2022-11-19T10:47:40.962Z,4.77
2022-11-19T10:50:00.505Z,5.40
2022-11-19T10:52:30.996Z,7.28
2022-11-19T10:54:55.225Z,8.98
2022-11-19T10:57:18.444Z,11.00
2022-11-19T11:02:16.424Z,9.23
2022-11-19T11:05:07.703Z,8.38
2022-11-19T11:07:51.981Z,11.32
2022-11-19T11:10:29.992Z,10.75
2022-11-19T11:13:08.816Z,8.90
2022-11-19T11:15:28.469Z,8.60
2022-11-19T11:17:59.922Z,7.82
2022-11-19T11:20:27.949Z,8.05
2022-11-19T11:23:03.430Z,7.90
2022-11-19T11:25:26.533Z,5.60
2022-11-19T11:27:46.630Z,7.00
2022-11-19T11:30:12.839Z,6.68
2022-11-19T11:32:33.244Z,6.00
2022-11-19T11:34:53.277Z,6.22
2022-11-19T11:37:12.987Z,6.05
2022-11-19T11:39:43.545Z,14.57
2022-11-19T11:42:06.613Z,8.70
2022-11-19T11:44:30.135Z,7.47
2022-11-19T11:47:04.534Z,5.20
2022-11-19T11:49:28.595Z,6.13
2022-11-19T11:52:01.021Z,5.85
2022-11-19T11:54:21.335Z,8.38
2022-11-19T11:56:40.939Z,10.63
2022-11-19T11:59:27.429Z,10.30
2022-11-19T12:02:01.474Z,10.10
2022-11-19T12:04:21.687Z,16.20
2022-11-19T12:06:53.000Z,58.15
2022-11-19T12:09:28.042Z,49.28
2022-11-19T12:12:01.154Z,25.70
2022-11-19T12:14:40.512Z,14.13
2022-11-19T12:17:05.793Z,12.05
2022-11-19T12:19:41.162Z,11.15
2022-11-19T12:22:19.705Z,11.95
2022-11-19T12:24:54.809Z,21.05
2022-11-19T12:27:33.264Z,17.48
2022-11-19T12:30:09.705Z,18.13
2022-11-19T12:32:30.003Z,19.33
2022-11-19T12:35:26.172Z,13.52
2022-11-19T12:38:23.049Z,14.70
2022-11-19T12:40:42.980Z,22.85
2022-11-19T12:43:29.422Z,13.30
2022-11-19T12:45:52.465Z,13.52
2022-11-19T12:48:31.527Z,14.65
2022-11-19T12:51:28.515Z,16.17
2022-11-19T12:54:15.927Z,11.02
2022-11-19T12:56:46.041Z,9.77
2022-11-19T12:59:35.194Z,11.98
2022-11-19T13:01:59.163Z,15.48
2022-11-19T13:04:51.554Z,10.07
2022-11-19T13:07:37.085Z,10.77
2022-11-19T13:10:07.036Z,21.88
2022-11-19T13:12:38.870Z,39.60
2022-11-19T13:15:33.614Z,15.52
2022-11-19T13:17:56.931Z,10.70
2022-11-19T13:20:27.986Z,8.80
2022-11-19T13:22:51.390Z,11.93
2022-11-19T13:25:31.159Z,9.20
2022-11-19T13:27:53.939Z,7.97
2022-11-19T13:30:19.169Z,6.93
2022-11-19T13:32:43.074Z,6.28
2022-11-19T13:35:24.469Z,8.95
2022-11-19T13:37:58.268Z,7.53
2022-11-19T13:40:30.309Z,5.63
2022-11-19T13:43:31.014Z,8.40
2022-11-19T13:46:19.209Z,12.45
2022-11-19T13:48:53.600Z,10.35
2022-11-19T13:51:48.080Z,4.85
2022-11-19T13:54:08.929Z,4.18
2022-11-19T13:56:42.058Z,4.50
2022-11-19T14:01:48.553Z,10.40
2022-11-19T14:04:27.405Z,15.43
2022-11-19T14:07:18.803Z,16.10
2022-11-19T14:09:57.149Z,14.23
2022-11-19T14:12:25.822Z,10.10
2022-11-19T14:15:29.458Z,11.13
2022-11-19T14:18:16.244Z,12.82
2022-11-19T14:21:00.489Z,8.95
2022-11-19T14:23:58.758Z,8.40
2022-11-19T14:26:40.851Z,11.48
2022-11-19T14:29:00.703Z,9.10
2022-11-19T14:31:21.340Z,15.35
2022-11-19T14:33:47.453Z,15.45
2022-11-19T14:36:14.014Z,9.63
2022-11-19T14:38:37.311Z,9.73
2022-11-19T14:41:23.224Z,7.65
2022-11-19T14:44:12.293Z,8.48
2022-11-19T14:46:32.269Z,8.27
2022-11-19T14:48:57.289Z,8.38
2022-11-19T14:51:26.748Z,6.18
2022-11-19T14:53:59.115Z,14.55
2022-11-19T14:56:21.362Z,9.98
2022-11-19T14:58:55.887Z,8.65
2022-11-19T15:01:21.006Z,7.07
2022-11-19T15:03:47.809Z,11.70
2022-11-19T15:06:15.454Z,17.00
2022-11-19T15:08:53.384Z,11.68
2022-11-19T15:11:13.828Z,9.95
2022-11-19T15:13:34.709Z,6.25
2022-11-19T15:15:57.780Z,8.82
2022-11-19T15:18:20.329Z,12.75
2022-11-19T15:21:17.384Z,12.93
2022-11-19T15:23:49.508Z,9.25
2022-11-19T15:26:44.800Z,2.13
2022-11-19T15:29:07.570Z,5.38
2022-11-19T15:31:51.531Z,3.28
2022-11-19T15:34:31.961Z,4.15
2022-11-19T15:37:07.782Z,3.53
2022-11-19T15:39:47.250Z,4.93
2022-11-19T15:42:13.461Z,1.90
2022-11-19T15:44:36.599Z,2.15
2022-11-19T15:46:59.957Z,5.25
2022-11-19T15:49:25.691Z,5.63
2022-11-19T15:52:05.230Z,3.78
2022-11-19T15:54:32.608Z,5.95
2022-11-19T15:56:52.817Z,8.80
2022-11-19T15:59:14.317Z,7.43
2022-11-19T16:01:35.084Z,6.40
2022-11-19T16:03:55.706Z,5.15
2022-11-19T16:06:17.874Z,11.07
2022-11-19T16:08:37.994Z,11.43
2022-11-19T16:11:20.501Z,11.77
2022-11-19T16:14:08.441Z,10.73
2022-11-19T16:16:47.260Z,12.20
2022-11-19T16:19:06.618Z,15.13
2022-11-19T16:21:33.156Z,13.18
2022-11-19T16:24:12.579Z,11.02
2022-11-19T16:26:38.660Z,12.82
2022-11-19T16:29:01.025Z,14.00
2022-11-19T16:31:20.931Z,6.60
2022-11-19T16:33:42.078Z,12.25
2022-11-19T16:36:12.634Z,10.35
2022-11-19T16:38:32.779Z,8.27
2022-11-19T16:41:12.480Z,8.82
2022-11-19T16:43:35.477Z,8.18
2022-11-19T16:48:49.177Z,7.32
2022-11-19T16:51:31.134Z,7.88
2022-11-19T16:53:50.910Z,11.48
2022-11-19T16:56:15.573Z,35.92
2022-11-19T16:58:38.159Z,21.58
2022-11-19T17:00:58.972Z,25.25
2022-11-19T17:03:31.425Z,14.43
2022-11-19T17:05:52.948Z,14.77
2022-11-19T17:08:27.972Z,8.75
2022-11-19T17:10:47.964Z,10.27
2022-11-19T17:13:19.709Z,26.73
2022-11-19T17:15:40.945Z,18.85
2022-11-19T17:18:26.902Z,14.30
2022-11-19T17:20:48.070Z,10.13
2022-11-19T17:23:17.305Z,5.45
2022-11-19T17:25:52.986Z,7.53
2022-11-19T17:28:18.392Z,19.63
2022-11-19T17:30:38.025Z,7.85
2022-11-19T17:33:00.921Z,7.60
2022-11-19T17:35:44.649Z,6.82
2022-11-19T17:38:20.634Z,12.65
2022-11-19T17:40:52.485Z,5.30
2022-11-19T17:43:32.706Z,14.32
2022-11-19T17:45:52.300Z,8.10
2022-11-19T17:48:19.935Z,9.88
2022-11-19T17:50:39.906Z,6.70
2022-11-19T17:52:59.941Z,17.70
2022-11-19T17:55:22.000Z,18.13
2022-11-19T17:57:42.984Z,20.40
2022-11-19T18:00:03.837Z,15.40
2022-11-19T18:02:23.663Z,12.45
2022-11-19T18:04:44.974Z,7.50
2022-11-19T18:07:05.115Z,18.77
2022-11-19T18:09:24.700Z,14.90
2022-11-19T18:11:45.076Z,7.68
2022-11-19T18:14:09.338Z,10.52
2022-11-19T18:16:35.017Z,7.93
2022-11-19T18:18:54.641Z,5.72
2022-11-19T18:21:16.848Z,8.38
2022-11-19T18:23:36.409Z,8.93
2022-11-19T18:25:56.449Z,8.05
2022-11-19T18:28:16.618Z,6.07
2022-11-19T18:30:36.710Z,6.88
2022-11-19T18:32:56.366Z,6.85
2022-11-19T18:35:19.014Z,5.95
2022-11-19T18:37:38.780Z,6.22
2022-11-19T18:39:58.911Z,3.60
2022-11-19T18:42:18.801Z,3.47
2022-11-19T18:44:41.029Z,3.80
2022-11-19T18:47:02.285Z,3.80
2022-11-19T18:49:22.670Z,3.42
2022-11-19T18:51:43.640Z,5.13
2022-11-19T18:54:03.197Z,3.35
2022-11-19T18:56:22.918Z,3.08
2022-11-19T18:58:42.629Z,4.75
2022-11-19T19:01:06.127Z,3.40
2022-11-19T19:03:26.022Z,5.35
2022-11-19T19:05:46.241Z,3.63
2022-11-19T19:08:06.034Z,3.58
2022-11-19T19:10:25.882Z,3.10
2022-11-19T19:12:45.494Z,9.15
2022-11-19T19:15:05.779Z,9.02
2022-11-19T19:17:26.001Z,3.60
2022-11-19T19:19:45.901Z,3.40
2022-11-19T19:22:06.417Z,2.55
2022-11-19T19:24:26.458Z,3.42
2022-11-19T19:26:46.170Z,2.97
2022-11-19T19:29:06.578Z,3.00
2022-11-19T19:31:26.620Z,2.47
2022-11-19T19:33:47.573Z,2.08
2022-11-19T19:36:07.310Z,3.22
2022-11-19T19:38:27.510Z,5.30
2022-11-19T19:40:47.090Z,3.10
2022-11-19T19:43:06.666Z,3.40
2022-11-19T19:45:26.330Z,2.47
2022-11-19T19:47:46.015Z,2.90
2022-11-19T19:50:06.225Z,5.43
2022-11-19T19:52:26.630Z,3.03
2022-11-19T19:54:46.463Z,3.05
2022-11-19T19:57:06.766Z,3.50
2022-11-19T19:59:26.327Z,2.95
2022-11-19T20:01:46.720Z,3.20
2022-11-19T20:04:10.165Z,4.95
2022-11-19T20:06:30.459Z,3.45
2022-11-19T20:08:50.306Z,3.25
2022-11-19T20:11:18.987Z,2.85
2022-11-19T20:13:39.508Z,3.15
2022-11-19T20:16:09.952Z,2.63
2022-11-19T20:21:00.165Z,3.28
2022-11-19T20:23:19.749Z,3.90
2022-11-19T20:25:39.548Z,4.85
2022-11-19T20:27:59.677Z,3.05
2022-11-19T20:30:19.326Z,2.97
2022-11-19T20:32:39.089Z,3.10
2022-11-19T20:34:58.874Z,3.22
2022-11-19T20:37:18.576Z,2.70
2022-11-19T20:39:38.214Z,1.92
2022-11-19T20:42:16.696Z,3.22
2022-11-19T20:44:36.920Z,3.42
2022-11-19T20:46:59.025Z,3.90
2022-11-19T20:49:21.985Z,8.93
2022-11-19T20:51:42.723Z,8.45
2022-11-19T20:54:08.086Z,9.10
2022-11-19T20:56:27.994Z,8.20
2022-11-19T20:58:47.489Z,6.68
2022-11-19T21:01:09.717Z,3.38
2022-11-19T21:03:30.616Z,17.20
2022-11-19T21:05:58.239Z,7.53
2022-11-19T21:08:18.256Z,2.88
2022-11-19T21:10:39.763Z,3.35
2022-11-19T21:13:02.765Z,1.92
2022-11-19T21:15:22.927Z,4.93
2022-11-19T21:17:42.617Z,3.25
2022-11-19T21:20:02.490Z,2.65
2022-11-19T21:22:22.605Z,1.95
2022-11-19T21:24:42.218Z,3.65
2022-11-19T21:27:01.995Z,2.60
2022-11-19T21:29:22.104Z,2.63
2022-11-19T21:31:44.690Z,2.78
2022-11-19T21:34:12.646Z,5.53
2022-11-19T21:36:32.987Z,2.55
2022-11-19T21:38:53.228Z,3.47
2022-11-19T21:41:13.402Z,3.05
2022-11-19T21:43:34.538Z,13.73
2022-11-19T21:45:54.978Z,5.00
2022-11-19T21:48:15.814Z,6.45
2022-11-19T21:50:39.736Z,2.20
2022-11-19T21:52:59.585Z,6.07
2022-11-19T21:55:20.038Z,5.75
2022-11-19T21:57:39.778Z,6.00
2022-11-19T21:59:59.645Z,7.13
2022-11-19T22:02:19.537Z,6.93
2022-11-19T22:04:39.270Z,4.93
2022-11-19T22:06:59.200Z,2.85
2022-11-19T22:09:19.627Z,2.20
2022-11-19T22:11:39.971Z,2.80
2022-11-19T22:14:01.737Z,2.45
2022-11-19T22:16:21.795Z,4.55
2022-11-19T22:18:41.931Z,3.25
2022-11-19T22:21:02.706Z,6.97
2022-11-19T22:23:24.430Z,5.38
2022-11-19T22:25:44.588Z,6.37
2022-11-19T22:28:04.217Z,4.05
2022-11-19T22:30:23.833Z,6.05
2022-11-19T22:32:43.327Z,6.00
2022-11-19T22:35:04.201Z,3.90
2022-11-19T22:37:24.448Z,3.63
2022-11-19T22:39:44.574Z,3.00
2022-11-19T22:42:04.707Z,6.10
2022-11-19T22:44:24.879Z,8.70
2022-11-19T22:46:44.917Z,9.32
2022-11-19T22:49:05.166Z,5.43
2022-11-19T22:51:25.393Z,4.95
2022-11-19T22:53:46.511Z,3.83
2022-11-19T22:56:09.153Z,7.80
2022-11-19T22:58:29.420Z,5.43
2022-11-19T23:00:49.360Z,5.22
2022-11-19T23:03:10.034Z,4.32
2022-11-19T23:05:34.421Z,6.07
2022-11-19T23:07:56.732Z,5.68
2022-11-19T23:10:16.335Z,5.18
2022-11-19T23:12:54.552Z,4.93
2022-11-19T23:15:15.262Z,5.47
2022-11-19T23:17:41.970Z,4.65
2022-11-19T23:20:04.549Z,5.85
2022-11-19T23:22:25.007Z,4.78
2022-11-19T23:24:45.112Z,2.90
2022-11-19T23:27:04.783Z,3.70
2022-11-19T23:29:24.352Z,2.92
2022-11-19T23:31:44.012Z,4.07
2022-11-19T23:34:04.256Z,3.97
2022-11-19T23:36:30.691Z,3.90
2022-11-19T23:38:50.982Z,5.85
2022-11-19T23:41:13.532Z,4.88
2022-11-19T23:43:33.646Z,4.45
2022-11-19T23:45:55.301Z,4.22
2022-11-19T23:48:16.670Z,5.65
2022-11-19T23:50:36.105Z,5.97
2022-11-19T23:52:56.374Z,3.90
2022-11-19T23:55:16.350Z,3.40
2022-11-19T23:57:36.573Z,4.00
2022-11-19T23:59:56.501Z,3.40
